Time;durP1;ratioP1;P1;durP2;ratioP2;P2;SDS_P1;SDS_P2;PMS_P1;PMS_P2;Temp;Humidity;BMP_temperature;BMP_pressure;BME280_temperature;BME280_humidity;BME280_pressure;Samples;Min_cycle;Max_cycle;Signal;HPM_P1;HPM_P2
2023/07/15 00:01:02;;;;;;;93.95;56.58;;;23.80;60.90;;;;;;4973025;28;94772;-50
2023/07/15 00:03:28;;;;;;;96.03;56.88;;;23.80;61.10;;;;;;4971102;28;95035;-46
2023/07/15 00:05:53;;;;;;;96.13;56.50;;;23.80;61.10;;;;;;4974142;28;95877;-50
2023/07/15 00:08:19;;;;;;;95.85;56.85;;;23.70;61.20;;;;;;4975021;28;94498;-50
2023/07/15 00:10:46;;;;;;;97.90;56.70;;;23.80;61.10;;;;;;4975097;28;97660;-49
2023/07/15 00:13:17;;;;;;;96.03;56.63;;;23.70;60.80;;;;;;4963291;28;97140;-51
2023/07/15 00:15:44;;;;;;;;;;;23.70;61.00;;;;;;4965869;28;101746;-47
2023/07/15 00:18:09;;;;;;;93.90;55.75;;;23.70;61.00;;;;;;4968572;28;97239;-47
2023/07/15 00:20:35;;;;;;;93.68;56.20;;;23.70;61.20;;;;;;4973006;28;100495;-46
2023/07/15 00:23:02;;;;;;;93.82;56.00;;;23.70;61.10;;;;;;4967713;28;95618;-43
2023/07/15 00:25:30;;;;;;;93.25;55.78;;;23.60;62.00;;;;;;4968139;28;95487;-49
2023/07/15 00:27:56;;;;;;;94.80;56.17;;;23.60;61.60;;;;;;4968024;28;96524;-46
2023/07/15 00:30:22;;;;;;;95.28;56.42;;;23.60;61.60;;;;;;4968402;28;95428;-48
2023/07/15 00:32:49;;;;;;;96.15;56.67;;;23.60;61.70;;;;;;4972367;28;95864;-48
2023/07/15 00:35:19;;;;;;;94.95;56.20;;;23.60;61.50;;;;;;4967570;28;97968;-49
2023/07/15 00:37:46;;;;;;;95.90;56.23;;;23.50;61.70;;;;;;4972318;28;95084;-47
2023/07/15 00:40:12;;;;;;;94.97;56.42;;;23.50;61.70;;;;;;4961600;28;97107;-50
2023/07/15 00:43:19;;;;;;;95.18;56.85;;;23.50;62.10;;;;;;4968232;28;96988;-46
2023/07/15 00:46:31;;;;;;;95.90;56.47;;;23.50;62.10;;;;;;4947869;28;96030;-49
2023/07/15 00:49:20;;;;;;;95.95;56.30;;;23.50;62.10;;;;;;4968720;28;95484;-45
2023/07/15 00:51:48;;;;;;;93.40;55.70;;;23.40;62.50;;;;;;4968898;28;96180;-51
2023/07/15 00:54:14;;;;;;;94.25;56.58;;;23.40;62.60;;;;;;4965675;28;98870;-48
2023/07/15 00:56:42;;;;;;;93.63;56.10;;;23.40;62.40;;;;;;4959317;28;96602;-45
2023/07/15 00:59:11;;;;;;;94.55;55.90;;;23.30;62.70;;;;;;4966894;28;97873;-47
2023/07/15 01:01:37;;;;;;;93.20;55.83;;;23.30;62.80;;;;;;4963288;28;94544;-48
2023/07/15 01:04:02;;;;;;;93.82;56.42;;;23.30;63.10;;;;;;4970532;28;98120;-49
2023/07/15 01:06:28;;;;;;;94.63;56.20;;;23.20;63.10;;;;;;4961275;28;96041;-44
2023/07/15 01:08:54;;;;;;;93.20;56.10;;;23.20;63.20;;;;;;4968147;28;96088;-46
2023/07/15 01:11:20;;;;;;;93.80;56.53;;;23.20;63.50;;;;;;4962549;28;94662;-49
2023/07/15 01:13:45;;;;;;;93.95;56.20;;;23.20;63.50;;;;;;4962644;28;98699;-48
2023/07/15 01:16:11;;;;;;;94.30;56.28;;;23.10;63.60;;;;;;4970895;28;95947;-47
2023/07/15 01:18:37;;;;;;;94.05;56.25;;;23.10;63.60;;;;;;4963555;28;95207;-48
2023/07/15 01:21:03;;;;;;;93.78;55.85;;;23.10;63.70;;;;;;4968446;28;94797;-46
2023/07/15 01:23:29;;;;;;;93.50;55.55;;;23.10;63.90;;;;;;4965125;28;97060;-47
2023/07/15 01:25:56;;;;;;;93.05;55.70;;;23.10;64.10;;;;;;4973382;28;94205;-50
2023/07/15 01:28:22;;;;;;;92.55;55.58;;;23.00;64.10;;;;;;4956953;28;97628;-46
2023/07/15 01:30:48;;;;;;;93.53;55.88;;;23.00;64.20;;;;;;4962857;28;96328;-46
2023/07/15 01:33:18;;;;;;;93.72;55.97;;;23.00;64.10;;;;;;4966435;28;96307;-50
2023/07/15 01:35:48;;;;;;;94.20;55.73;;;23.00;64.40;;;;;;4964214;28;96106;-44
2023/07/15 01:38:17;;;;;;;92.43;55.67;;;23.00;64.50;;;;;;4960067;28;95194;-48
2023/07/15 01:40:43;;;;;;;92.88;55.55;;;23.00;64.40;;;;;;4966523;28;95417;-50
2023/07/15 01:43:10;;;;;;;93.53;55.95;;;22.90;64.30;;;;;;4969675;28;95143;-46
2023/07/15 01:45:36;;;;;;;93.28;55.80;;;22.90;64.30;;;;;;4964143;28;95458;-46
2023/07/15 01:48:02;;;;;;;92.20;55.38;;;23.00;64.40;;;;;;4968899;28;97047;-47
2023/07/15 01:50:27;;;;;;;92.70;55.92;;;22.90;64.60;;;;;;4973193;28;96409;-45
2023/07/15 01:52:53;;;;;;;92.53;55.63;;;22.90;64.60;;;;;;4968466;28;94922;-49
2023/07/15 01:55:18;;;;;;;92.47;55.72;;;22.90;64.60;;;;;;4962780;28;95126;-49
2023/07/15 01:57:44;;;;;;;93.28;55.97;;;22.90;64.70;;;;;;4965292;28;95622;-44
2023/07/15 02:00:10;;;;;;;92.72;55.65;;;22.90;64.90;;;;;;4963356;28;95592;-46
2023/07/15 02:02:36;;;;;;;93.00;55.72;;;22.80;64.80;;;;;;4968506;28;95526;-48
2023/07/15 02:05:02;;;;;;;93.07;55.92;;;22.90;65.00;;;;;;4970972;28;95094;-50
2023/07/15 02:07:27;;;;;;;93.47;56.03;;;22.80;65.00;;;;;;4969399;28;94725;-48
2023/07/15 02:09:53;;;;;;;93.18;55.75;;;22.80;65.30;;;;;;4966723;28;99448;-48
2023/07/15 02:12:18;;;;;;;93.43;55.55;;;22.80;65.30;;;;;;4968861;28;95667;-46
2023/07/15 02:14:44;;;;;;;93.30;56.05;;;22.70;65.60;;;;;;4966652;28;94249;-47
2023/07/15 02:17:10;;;;;;;92.38;55.65;;;22.80;65.90;;;;;;4968203;28;94726;-48
2023/07/15 02:19:35;;;;;;;93.03;55.85;;;22.70;65.60;;;;;;4951514;28;95020;-46
2023/07/15 02:22:01;;;;;;;92.97;55.95;;;22.70;66.70;;;;;;4967062;28;96287;-46
2023/07/15 02:24:27;;;;;;;93.25;55.70;;;22.70;65.90;;;;;;4966828;28;96049;-47
2023/07/15 02:26:52;;;;;;;93.68;55.33;;;22.70;66.00;;;;;;4961308;28;97528;-46
2023/07/15 02:29:18;;;;;;;93.75;55.63;;;22.60;65.90;;;;;;4969847;28;95999;-49
2023/07/15 02:31:44;;;;;;;92.78;55.50;;;22.60;66.00;;;;;;4963200;28;97976;-48
2023/07/15 02:34:10;;;;;;;92.95;55.75;;;22.60;66.30;;;;;;4964352;28;96302;-47
2023/07/15 02:36:36;;;;;;;92.03;55.47;;;22.60;66.70;;;;;;4965913;28;94601;-45
2023/07/15 02:39:04;;;;;;;91.80;55.35;;;22.50;66.50;;;;;;4951243;28;94200;-48
2023/07/15 02:41:32;;;;;;;92.53;55.60;;;22.50;66.50;;;;;;4962904;28;94770;-48
2023/07/15 02:43:57;;;;;;;92.78;55.78;;;22.50;66.90;;;;;;4967678;28;95919;-51
2023/07/15 02:46:24;;;;;;;92.32;55.53;;;22.50;66.80;;;;;;4968139;28;98630;-45
2023/07/15 02:48:49;;;;;;;91.82;55.25;;;22.40;67.20;;;;;;4953702;28;96662;-47
2023/07/15 02:51:15;;;;;;;93.05;55.22;;;22.40;67.50;;;;;;4964698;28;96212;-49
2023/07/15 02:53:43;;;;;;;91.88;55.20;;;22.40;67.20;;;;;;4965793;28;95281;-47
2023/07/15 02:56:08;;;;;;;92.20;55.13;;;22.40;67.30;;;;;;4967648;28;94617;-48
2023/07/15 02:58:34;;;;;;;91.72;54.92;;;22.40;67.40;;;;;;4971799;28;95202;-48
2023/07/15 03:00:59;;;;;;;92.72;55.08;;;22.30;67.70;;;;;;4967566;28;95606;-49
2023/07/15 03:03:25;;;;;;;91.85;55.20;;;22.30;67.80;;;;;;4969520;28;93911;-47
2023/07/15 03:05:51;;;;;;;92.68;55.10;;;22.30;68.10;;;;;;4966496;28;96510;-46
2023/07/15 03:08:17;;;;;;;91.82;54.95;;;22.30;68.20;;;;;;4965160;28;95640;-47
2023/07/15 03:10:46;;;;;;;91.38;54.83;;;22.20;68.20;;;;;;4966665;28;97259;-45
2023/07/15 03:13:12;;;;;;;92.03;55.17;;;22.20;68.60;;;;;;4971741;28;96254;-49
2023/07/15 03:15:39;;;;;;;92.03;54.78;;;22.20;68.40;;;;;;4972966;28;97678;-46
2023/07/15 03:18:05;;;;;;;93.30;55.00;;;22.20;68.60;;;;;;4967519;28;94872;-48
2023/07/15 03:20:31;;;;;;;90.93;54.63;;;22.10;69.20;;;;;;4972588;28;96169;-47
2023/07/15 03:22:57;;;;;;;91.45;54.65;;;22.10;68.60;;;;;;4964917;28;99047;-48
2023/07/15 03:25:23;;;;;;;91.47;54.90;;;22.10;69.30;;;;;;4969657;28;96719;-45
2023/07/15 03:27:50;;;;;;;91.72;54.70;;;22.10;69.00;;;;;;4964470;28;94097;-48
2023/07/15 03:30:16;;;;;;;92.18;54.80;;;22.10;69.00;;;;;;4965716;28;95380;-49
2023/07/15 03:32:44;;;;;;;91.65;54.78;;;22.10;69.10;;;;;;4965019;28;96647;-45
2023/07/15 03:35:10;;;;;;;92.25;55.00;;;22.10;69.20;;;;;;4966192;28;96110;-49
2023/07/15 03:37:37;;;;;;;91.57;54.90;;;22.00;69.00;;;;;;4967531;28;96572;-49
2023/07/15 03:40:08;;;;;;;91.72;54.78;;;22.00;69.20;;;;;;4967466;28;94955;-50
2023/07/15 03:42:34;;;;;;;91.53;54.80;;;22.00;69.20;;;;;;4960871;28;95103;-49
2023/07/15 03:45:00;;;;;;;93.22;54.90;;;22.00;69.50;;;;;;4965743;28;99493;-46
2023/07/15 03:47:26;;;;;;;92.15;54.90;;;22.00;69.60;;;;;;4968119;28;94746;-48
2023/07/15 03:49:52;;;;;;;91.75;55.20;;;21.90;69.80;;;;;;4965911;28;96391;-45
2023/07/15 03:52:17;;;;;;;91.20;54.47;;;21.90;69.80;;;;;;4952245;28;98251;-46
2023/07/15 03:54:43;;;;;;;91.53;54.83;;;21.90;69.70;;;;;;4940660;28;96032;-47
2023/07/15 03:57:09;;;;;;;92.07;54.72;;;21.90;69.60;;;;;;4963134;28;95038;-47
2023/07/15 03:59:35;;;;;;;91.90;54.50;;;21.90;69.80;;;;;;4961005;28;96220;-48
2023/07/15 04:02:01;;;;;;;91.75;54.88;;;21.90;70.00;;;;;;4965155;28;98433;-46
2023/07/15 04:04:27;;;;;;;91.25;54.83;;;21.90;70.50;;;;;;4964210;28;96341;-48
2023/07/15 04:06:54;;;;;;;91.32;54.30;;;21.80;70.00;;;;;;4960903;28;95175;-49
2023/07/15 04:09:20;;;;;;;92.35;55.08;;;21.80;70.00;;;;;;4959690;28;96919;-52
2023/07/15 04:11:46;;;;;;;91.05;54.85;;;21.80;69.80;;;;;;4963964;28;94715;-46
2023/07/15 04:14:12;;;;;;;90.53;54.25;;;21.80;70.20;;;;;;4963473;28;95643;-47
2023/07/15 04:16:38;;;;;;;91.90;54.97;;;21.80;69.90;;;;;;4962373;28;94192;-46
2023/07/15 04:19:04;;;;;;;90.18;54.35;;;21.80;69.90;;;;;;4964567;28;99639;-47
2023/07/15 04:21:29;;;;;;;90.85;54.65;;;21.80;69.70;;;;;;4967504;28;97876;-47
2023/07/15 04:23:55;;;;;;;90.22;54.53;;;21.80;69.80;;;;;;4965512;28;96380;-45
2023/07/15 04:26:25;;;;;;;91.25;54.65;;;21.80;69.90;;;;;;4973503;28;95744;-47
2023/07/15 04:28:52;;;;;;;90.95;54.60;;;21.80;70.00;;;;;;4965190;28;97346;-41
2023/07/15 04:31:18;;;;;;;91.45;54.53;;;21.80;70.00;;;;;;4962909;28;95454;-42
2023/07/15 04:33:48;;;;;;;91.20;54.35;;;21.80;69.90;;;;;;4966247;28;94754;-44
2023/07/15 04:36:15;;;;;;;89.95;54.45;;;21.80;69.90;;;;;;4964649;28;94872;-40
2023/07/15 04:38:41;;;;;;;90.22;54.90;;;21.80;70.10;;;;;;4966534;28;97356;-41
2023/07/15 04:41:07;;;;;;;90.05;54.45;;;21.80;70.40;;;;;;4965053;28;94566;-41
2023/07/15 04:43:33;;;;;;;89.82;54.25;;;21.80;69.90;;;;;;4964243;28;97689;-41
2023/07/15 04:45:59;;;;;;;91.38;54.63;;;21.80;69.80;;;;;;4957342;28;95076;-40
2023/07/15 04:48:25;;;;;;;89.85;54.33;;;21.80;70.20;;;;;;4964979;28;96482;-41
2023/07/15 04:50:51;;;;;;;90.20;54.28;;;21.80;69.70;;;;;;4965919;28;95325;-42
2023/07/15 04:53:17;;;;;;;90.75;54.83;;;21.80;69.90;;;;;;4965579;28;98001;-43
2023/07/15 04:55:44;;;;;;;90.40;54.30;;;21.80;70.00;;;;;;4949765;28;97633;-42
2023/07/15 04:58:11;;;;;;;90.65;54.92;;;21.80;69.90;;;;;;4963054;28;97811;-41
2023/07/15 05:00:37;;;;;;;90.88;54.72;;;21.80;70.30;;;;;;4964924;28;95231;-41
2023/07/15 05:03:06;;;;;;;91.70;55.13;;;21.80;70.20;;;;;;4963262;28;95345;-41
2023/07/15 05:05:32;;;;;;;90.60;54.67;;;21.90;69.80;;;;;;4970335;28;94129;-42
2023/07/15 05:08:17;;;;;;;91.00;54.60;;;21.80;70.00;;;;;;4965800;28;95399;-41
2023/07/15 05:10:44;;;;;;;90.95;54.47;;;21.90;69.60;;;;;;4966067;28;98171;-41
2023/07/15 05:13:10;;;;;;;90.88;54.65;;;21.90;69.60;;;;;;4965428;28;96784;-42
2023/07/15 05:15:36;;;;;;;91.60;55.15;;;21.90;69.80;;;;;;4968757;28;95389;-42
2023/07/15 05:18:04;;;;;;;90.20;54.30;;;21.90;69.90;;;;;;4968686;28;95091;-52
2023/07/15 05:20:31;;;;;;;90.28;54.67;;;21.90;69.80;;;;;;4970419;28;95032;-45
2023/07/15 05:22:57;;;;;;;91.43;54.97;;;21.90;70.00;;;;;;4965731;28;97778;-47
2023/07/15 05:25:23;;;;;;;90.88;54.92;;;21.90;70.00;;;;;;4966602;28;95649;-49
2023/07/15 05:27:49;;;;;;;90.35;54.42;;;21.90;70.00;;;;;;4965391;28;96175;-48
2023/07/15 05:30:14;;;;;;;91.00;54.35;;;21.90;69.70;;;;;;4975266;28;96871;-46
2023/07/15 05:32:40;;;;;;;90.47;54.58;;;22.00;69.70;;;;;;4971333;28;98674;-45
2023/07/15 05:35:06;;;;;;;91.43;54.58;;;21.90;69.80;;;;;;4965960;28;95762;-46
2023/07/15 05:37:31;;;;;;;91.22;54.53;;;22.00;69.50;;;;;;4963170;28;96577;-46
2023/07/15 05:39:57;;;;;;;91.88;54.92;;;22.00;69.30;;;;;;4971077;28;98267;-48
2023/07/15 05:42:23;;;;;;;91.25;54.45;;;22.00;69.40;;;;;;4972592;28;95378;-46
2023/07/15 05:44:48;;;;;;;90.43;54.60;;;22.00;69.20;;;;;;4971902;28;95186;-48
2023/07/15 05:47:14;;;;;;;90.72;54.22;;;22.10;69.30;;;;;;4970936;28;95066;-49
2023/07/15 05:49:40;;;;;;;91.65;54.88;;;22.10;69.30;;;;;;4965743;28;95040;-48
2023/07/15 05:52:06;;;;;;;91.30;54.63;;;22.10;69.60;;;;;;4969665;28;94675;-47
2023/07/15 05:54:31;;;;;;;90.97;54.75;;;22.10;69.00;;;;;;4963227;28;95136;-46
2023/07/15 05:56:57;;;;;;;91.75;55.15;;;22.20;69.00;;;;;;4948328;28;98195;-45
2023/07/15 05:59:22;;;;;;;91.60;55.13;;;22.10;69.30;;;;;;4965555;28;95621;-45
2023/07/15 06:01:48;;;;;;;91.65;54.97;;;22.20;68.90;;;;;;4964158;28;99710;-48
2023/07/15 06:04:14;;;;;;;91.57;54.85;;;22.20;68.70;;;;;;4966825;28;95702;-47
2023/07/15 06:06:40;;;;;;;91.15;54.70;;;22.30;68.60;;;;;;4970140;28;95864;-50
2023/07/15 06:09:06;;;;;;;91.72;54.90;;;22.30;68.50;;;;;;4969307;28;95578;-45
2023/07/15 06:11:32;;;;;;;91.70;55.13;;;22.30;68.80;;;;;;4964812;28;96228;-52
2023/07/15 06:14:00;;;;;;;91.75;54.97;;;22.30;68.60;;;;;;4966803;28;98002;-47
2023/07/15 06:16:26;;;;;;;92.45;54.95;;;22.30;68.40;;;;;;4963752;28;96064;-49
2023/07/15 06:18:52;;;;;;;91.70;54.53;;;22.40;68.40;;;;;;4973540;28;96388;-48
2023/07/15 06:21:18;;;;;;;92.00;55.08;;;22.40;68.20;;;;;;4965526;28;95456;-49
2023/07/15 06:23:43;;;;;;;91.95;55.10;;;22.40;68.70;;;;;;4972432;28;98409;-47
2023/07/15 06:26:09;;;;;;;91.20;54.90;;;22.40;68.70;;;;;;4964661;28;99320;-45
2023/07/15 06:28:35;;;;;;;91.45;55.00;;;22.50;68.10;;;;;;4967201;28;96502;-41
2023/07/15 06:31:06;;;;;;;91.70;54.65;;;22.50;68.30;;;;;;4963629;28;96448;-42
2023/07/15 06:33:36;;;;;;;91.82;54.85;;;22.50;68.00;;;;;;4962024;28;94665;-42
2023/07/15 06:36:03;;;;;;;92.28;55.08;;;22.50;67.90;;;;;;4965840;28;95585;-41
2023/07/15 06:38:29;;;;;;;91.72;54.83;;;22.60;68.00;;;;;;4968517;28;95109;-41
2023/07/15 06:40:56;;;;;;;92.53;54.90;;;22.60;68.00;;;;;;4964817;28;96482;-41
2023/07/15 06:43:22;;;;;;;91.88;55.10;;;22.50;67.90;;;;;;4962915;28;95768;-42
2023/07/15 06:45:47;;;;;;;92.45;55.35;;;22.60;68.00;;;;;;4963037;28;99342;-41
2023/07/15 06:48:13;;;;;;;92.03;55.28;;;22.60;67.90;;;;;;4971310;28;98683;-46
2023/07/15 06:50:40;;;;;;;92.10;55.35;;;22.60;67.70;;;;;;4966563;28;96315;-49
2023/07/15 06:53:06;;;;;;;91.82;54.97;;;22.70;67.70;;;;;;4968853;28;94590;-50
2023/07/15 06:55:32;;;;;;;92.88;55.38;;;22.70;67.50;;;;;;4963308;28;95560;-47
2023/07/15 06:57:57;;;;;;;93.38;55.35;;;22.70;67.50;;;;;;4964293;28;95385;-50
2023/07/15 07:00:24;;;;;;;92.95;55.35;;;22.80;67.50;;;;;;4969724;28;96835;-49
2023/07/15 07:02:50;;;;;;;93.45;55.35;;;22.80;67.20;;;;;;4964816;28;95542;-49
2023/07/15 07:05:16;;;;;;;93.43;55.22;;;22.90;67.10;;;;;;4969825;28;94740;-49
2023/07/15 07:07:42;;;;;;;93.70;55.38;;;22.90;67.10;;;;;;4966539;28;95358;-44
2023/07/15 07:10:08;;;;;;;93.35;55.10;;;22.90;66.90;;;;;;4966977;28;95274;-48
2023/07/15 07:12:34;;;;;;;93.53;55.40;;;23.00;66.70;;;;;;4964302;28;97310;-45
2023/07/15 07:15:00;;;;;;;93.25;55.30;;;23.00;66.70;;;;;;4966262;28;101083;-44
2023/07/15 07:17:25;;;;;;;92.97;55.17;;;23.10;66.80;;;;;;4966946;28;97142;-47
2023/07/15 07:19:51;;;;;;;93.72;55.10;;;23.20;66.60;;;;;;4953612;28;95979;-46
2023/07/15 07:22:17;;;;;;;93.10;55.35;;;23.20;66.40;;;;;;4970864;28;94684;-45
2023/07/15 07:24:42;;;;;;;93.75;55.25;;;23.30;66.20;;;;;;4942466;28;96739;-47
2023/07/15 07:27:08;;;;;;;93.05;55.40;;;23.30;66.10;;;;;;4960717;28;96064;-43
2023/07/15 07:29:34;;;;;;;94.38;55.58;;;23.40;66.00;;;;;;4964965;28;94683;-47
2023/07/15 07:32:00;;;;;;;94.40;55.42;;;23.50;65.70;;;;;;4965563;28;93960;-49
2023/07/15 07:34:25;;;;;;;94.00;55.47;;;23.50;65.60;;;;;;4963384;28;95110;-45
2023/07/15 07:36:51;;;;;;;94.25;55.95;;;23.50;65.00;;;;;;4966354;28;94814;-48
2023/07/15 07:39:17;;;;;;;93.90;55.53;;;23.60;65.20;;;;;;4973004;28;97346;-49
2023/07/15 07:41:42;;;;;;;94.15;55.35;;;23.60;65.10;;;;;;4969575;28;94452;-46
2023/07/15 07:44:09;;;;;;;94.07;55.78;;;23.70;64.70;;;;;;4977603;28;95221;-42
2023/07/15 07:46:34;;;;;;;93.90;55.58;;;23.70;65.00;;;;;;4982627;28;97550;-44
2023/07/15 07:49:00;;;;;;;94.07;55.55;;;23.70;64.80;;;;;;4981595;28;96117;-44
2023/07/15 07:51:26;;;;;;;93.75;55.50;;;23.70;64.60;;;;;;4973526;28;95521;-45
2023/07/15 07:53:51;;;;;;;95.80;55.65;;;23.80;64.90;;;;;;4982472;28;94905;-48
2023/07/15 07:56:17;;;;;;;93.97;55.67;;;23.80;64.30;;;;;;4981816;28;93972;-47
2023/07/15 07:58:44;;;;;;;96.47;55.97;;;23.80;64.80;;;;;;4977009;28;96759;-42
2023/07/15 08:01:10;;;;;;;93.80;55.35;;;23.80;64.30;;;;;;4984749;28;94994;-40
2023/07/15 08:03:36;;;;;;;93.53;55.58;;;23.90;64.50;;;;;;4982331;28;97170;-41
2023/07/15 08:06:02;;;;;;;94.75;55.45;;;23.80;64.30;;;;;;4982540;28;95352;-40
2023/07/15 08:08:27;;;;;;;94.50;55.83;;;23.90;64.30;;;;;;4977286;28;97745;-43
2023/07/15 08:10:53;;;;;;;93.40;55.28;;;23.80;64.60;;;;;;4975896;28;96726;-40
2023/07/15 08:13:19;;;;;;;94.53;55.60;;;23.80;65.20;;;;;;4975566;28;97571;-42
2023/07/15 08:15:44;;;;;;;93.53;55.40;;;23.80;64.70;;;;;;4976059;28;95104;-40
2023/07/15 08:18:10;;;;;;;93.10;55.30;;;23.80;64.20;;;;;;4984504;28;96679;-42
2023/07/15 08:20:38;;;;;;;93.50;55.30;;;23.80;64.00;;;;;;4973462;28;94068;-41
2023/07/15 08:23:03;;;;;;;93.53;55.42;;;23.80;64.60;;;;;;4973505;28;95522;-40
2023/07/15 08:25:29;;;;;;;94.07;55.75;;;23.80;64.50;;;;;;4971683;28;95507;-41
2023/07/15 08:27:55;;;;;;;93.57;55.63;;;23.80;64.30;;;;;;4962224;28;97939;-41
2023/07/15 08:30:21;;;;;;;93.70;55.60;;;23.80;64.30;;;;;;4952896;28;95898;-40
2023/07/15 08:32:47;;;;;;;93.88;55.42;;;23.90;64.20;;;;;;4967699;28;95718;-40
2023/07/15 08:35:12;;;;;;;93.85;55.53;;;23.90;64.30;;;;;;4969416;28;96958;-42
2023/07/15 08:37:39;;;;;;;93.82;55.22;;;24.00;63.90;;;;;;4967000;28;95984;-40
2023/07/15 08:40:08;;;;;;;93.43;55.25;;;23.90;64.50;;;;;;4964827;28;95113;-41
2023/07/15 08:42:35;;;;;;;94.03;55.53;;;24.00;64.00;;;;;;4964280;28;100328;-42
2023/07/15 08:45:02;;;;;;;93.93;55.45;;;24.00;64.50;;;;;;4972397;28;95090;-43
2023/07/15 08:47:28;;;;;;;94.28;55.75;;;24.00;64.30;;;;;;4970425;28;96833;-42
2023/07/15 08:49:55;;;;;;;94.68;55.58;;;24.10;63.40;;;;;;4964791;28;96716;-48
2023/07/15 08:52:23;;;;;;;93.65;55.38;;;24.00;63.60;;;;;;4964030;28;95917;-46
2023/07/15 08:54:53;;;;;;;94.18;55.55;;;24.10;63.30;;;;;;4969483;28;94898;-44
2023/07/15 08:57:20;;;;;;;94.55;55.47;;;24.00;63.90;;;;;;4964610;28;94814;-45
2023/07/15 08:59:50;;;;;;;94.35;55.47;;;24.10;63.80;;;;;;4962751;28;97168;-49
2023/07/15 09:02:15;;;;;;;93.75;55.38;;;24.10;63.70;;;;;;4947626;28;95045;-45
2023/07/15 09:04:41;;;;;;;93.70;55.55;;;24.10;63.30;;;;;;4963137;28;95265;-45
2023/07/15 09:07:08;;;;;;;94.78;55.53;;;24.10;63.40;;;;;;4963654;28;95783;-45
2023/07/15 09:09:34;;;;;;;94.00;55.55;;;24.10;64.10;;;;;;4962168;28;96363;-43
2023/07/15 09:12:09;;;;;;;94.82;55.90;;;24.10;63.30;;;;;;4972230;28;95942;-46
2023/07/15 09:14:44;;;;;;;94.47;55.72;;;24.20;63.00;;;;;;4970103;28;96985;-43
2023/07/15 09:17:16;;;;;;;95.30;55.90;;;24.30;62.60;;;;;;4968731;28;96390;-45
2023/07/15 09:19:43;;;;;;;95.00;55.95;;;24.40;62.60;;;;;;4969046;28;95226;-46
2023/07/15 09:22:09;;;;;;;95.57;56.20;;;24.50;62.30;;;;;;4965600;28;95376;-47
2023/07/15 09:24:38;;;;;;;96.35;56.10;;;24.50;61.90;;;;;;4959824;28;95420;-47
2023/07/15 09:27:04;;;;;;;95.30;56.17;;;24.60;62.20;;;;;;4967706;28;95119;-46
2023/07/15 09:29:30;;;;;;;94.80;55.83;;;24.70;61.40;;;;;;4961276;28;99326;-46
2023/07/15 09:31:56;;;;;;;95.43;56.15;;;24.70;61.50;;;;;;4965935;28;98695;-47
2023/07/15 09:34:25;;;;;;;96.40;56.53;;;24.80;61.60;;;;;;4968926;28;95074;-45
2023/07/15 09:36:52;;;;;;;95.18;56.05;;;24.80;62.20;;;;;;4966716;28;95200;-47
2023/07/15 09:39:19;;;;;;;95.47;56.13;;;24.90;61.80;;;;;;4964940;28;96126;-46
2023/07/15 09:42:00;;;;;;;97.57;56.30;;;24.90;61.80;;;;;;4967645;28;96604;-45
2023/07/15 09:44:45;;;;;;;95.75;56.30;;;25.00;61.40;;;;;;4965993;28;96420;-44
2023/07/15 09:47:10;;;;;;;96.40;55.95;;;25.00;61.90;;;;;;4965930;28;96012;-45
2023/07/15 09:49:36;;;;;;;95.43;55.90;;;25.00;61.00;;;;;;4966629;28;94603;-46
2023/07/15 09:52:05;;;;;;;97.93;56.28;;;25.00;60.80;;;;;;4963230;28;98276;-48
2023/07/15 09:54:34;;;;;;;95.70;56.33;;;25.10;60.60;;;;;;4967819;28;95042;-44
2023/07/15 09:57:03;;;;;;;101.20;57.50;;;25.10;60.60;;;;;;4963801;28;97601;-47
2023/07/15 09:59:39;;;;;;;98.57;56.97;;;25.10;60.70;;;;;;4961947;28;95425;-52
2023/07/15 10:02:14;;;;;;;98.57;56.78;;;25.10;60.70;;;;;;4962855;28;97211;-50
2023/07/15 10:04:44;;;;;;;97.03;56.60;;;25.10;60.10;;;;;;4960710;28;95635;-48
2023/07/15 10:07:11;;;;;;;99.77;56.97;;;25.20;60.70;;;;;;4970784;28;96668;-50
2023/07/15 10:09:37;;;;;;;100.68;57.03;;;25.20;61.30;;;;;;4976890;28;94961;-48
2023/07/15 10:12:05;;;;;;;99.22;57.33;;;25.20;60.40;;;;;;4967096;28;94835;-47
2023/07/15 10:14:31;;;;;;;99.18;57.05;;;25.20;59.90;;;;;;4967933;28;95476;-45
2023/07/15 10:17:14;;;;;;;100.55;57.22;;;25.20;59.80;;;;;;4970688;28;95051;-49
2023/07/15 10:19:41;;;;;;;101.32;57.03;;;25.20;59.90;;;;;;4960905;28;100959;-44
2023/07/15 10:22:07;;;;;;;101.40;57.72;;;25.20;60.20;;;;;;4969634;28;97195;-42
2023/07/15 10:24:33;;;;;;;101.78;57.50;;;25.20;60.10;;;;;;4955550;28;95677;-42
2023/07/15 10:27:05;;;;;;;101.78;57.53;;;25.20;59.90;;;;;;4964867;28;97615;-42
2023/07/15 10:29:31;;;;;;;104.68;57.88;;;25.30;60.30;;;;;;4966833;28;97124;-42
2023/07/15 10:32:11;;;;;;;102.60;57.75;;;25.20;60.10;;;;;;4960420;28;101357;-42
2023/07/15 10:34:49;;;;;;;102.30;58.10;;;25.20;60.20;;;;;;4963986;28;97240;-41
2023/07/15 10:37:16;;;;;;;103.97;57.85;;;25.20;60.20;;;;;;4966709;28;97592;-41
2023/07/15 10:39:44;;;;;;;100.50;57.65;;;25.20;60.40;;;;;;4963162;28;96098;-46
2023/07/15 10:42:15;;;;;;;100.07;57.70;;;25.20;60.50;;;;;;4968971;28;95339;-41
2023/07/15 10:44:54;;;;;;;102.38;57.85;;;25.20;60.30;;;;;;4949497;28;96348;-42
2023/07/15 10:47:21;;;;;;;101.90;57.60;;;25.30;60.10;;;;;;4967100;28;95369;-43
2023/07/15 10:49:52;;;;;;;102.43;57.45;;;25.20;59.90;;;;;;4949369;28;94316;-42
2023/07/15 10:52:23;;;;;;;102.18;57.92;;;25.30;60.30;;;;;;4971205;28;94825;-41
2023/07/15 10:54:48;;;;;;;;;;;25.40;60.10;;;;;;4963563;28;98656;-42
2023/07/15 10:57:15;;;;;;;102.07;57.80;;;25.40;60.30;;;;;;4968025;28;96075;-41
2023/07/15 10:59:46;;;;;;;101.38;57.63;;;25.40;60.10;;;;;;4963124;28;96805;-44
2023/07/15 11:02:13;;;;;;;100.68;57.60;;;25.40;59.90;;;;;;4966665;28;96106;-42
2023/07/15 11:04:39;;;;;;;100.78;57.45;;;25.40;59.80;;;;;;4960184;28;96284;-42
2023/07/15 11:07:09;;;;;;;100.78;57.45;;;25.40;60.00;;;;;;4964954;28;95671;-43
2023/07/15 11:09:40;;;;;;;99.85;57.30;;;25.50;59.90;;;;;;4967064;28;97795;-46
2023/07/15 11:12:08;;;;;;;99.28;57.13;;;25.50;59.80;;;;;;4960006;28;96887;-48
2023/07/15 11:14:33;;;;;;;100.72;57.47;;;25.40;59.60;;;;;;4954735;28;94681;-44
2023/07/15 11:17:01;;;;;;;101.40;57.38;;;25.40;59.70;;;;;;4961556;28;96387;-44
2023/07/15 11:19:29;;;;;;;100.28;57.40;;;25.50;59.70;;;;;;4959820;28;98245;-46
2023/07/15 11:21:56;;;;;;;100.30;57.35;;;25.50;59.80;;;;;;4966657;28;96407;-47
2023/07/15 11:24:23;;;;;;;100.15;57.50;;;25.60;59.80;;;;;;4970876;28;94786;-46
2023/07/15 11:26:49;;;;;;;100.88;57.47;;;25.60;59.80;;;;;;4971176;28;96148;-45
2023/07/15 11:29:22;;;;;;;100.57;57.65;;;25.60;59.40;;;;;;4966235;28;98913;-44
2023/07/15 11:31:53;;;;;;;98.90;57.35;;;25.60;59.60;;;;;;4969518;28;98499;-46
2023/07/15 11:34:21;;;;;;;100.28;57.53;;;25.60;59.50;;;;;;4961606;28;94992;-44
2023/07/15 11:36:48;;;;;;;100.20;58.03;;;25.70;59.50;;;;;;4962675;28;98255;-50
2023/07/15 11:39:14;;;;;;;99.78;57.78;;;25.70;59.30;;;;;;4967001;28;98361;-46
2023/07/15 11:41:40;;;;;;;98.82;57.75;;;25.80;59.40;;;;;;4972526;28;96767;-46
2023/07/15 11:44:09;;;;;;;100.82;57.65;;;25.80;59.50;;;;;;4980368;28;100323;-48
2023/07/15 11:46:35;;;;;;;100.53;57.17;;;25.80;58.90;;;;;;4976014;28;95737;-48
2023/07/15 11:49:00;;;;;;;100.00;57.53;;;25.80;58.50;;;;;;4975237;28;95322;-43
2023/07/15 11:51:26;;;;;;;104.63;56.83;;;25.80;58.40;;;;;;4966678;28;95391;-45
2023/07/15 11:53:54;;;;;;;98.72;57.13;;;25.80;58.00;;;;;;4966562;28;97649;-46
2023/07/15 11:56:55;;;;;;;100.60;57.05;;;25.70;57.30;;;;;;4974971;28;95180;-47
2023/07/15 11:59:31;;;;;;;100.07;57.22;;;25.70;57.10;;;;;;4884951;28;95581;-44
2023/07/15 12:01:58;;;;;;;96.90;56.92;;;25.70;55.60;;;;;;4950531;28;98624;-44
2023/07/15 12:04:27;;;;;;;100.30;57.03;;;25.70;54.80;;;;;;4977498;28;96608;-44
2023/07/15 12:06:53;;;;;;;99.03;57.10;;;25.80;54.10;;;;;;4970922;28;95904;-46
2023/07/15 12:09:20;;;;;;;99.68;57.00;;;25.80;53.50;;;;;;4969517;28;96392;-45
2023/07/15 12:11:46;;;;;;;98.18;56.90;;;25.80;53.50;;;;;;4965301;28;97700;-45
2023/07/15 12:14:13;;;;;;;98.57;56.35;;;25.70;53.10;;;;;;4966627;28;95584;-45
2023/07/15 12:16:40;;;;;;;99.80;56.53;;;25.60;52.50;;;;;;4975614;28;94768;-45
2023/07/15 12:19:08;;;;;;;100.28;56.33;;;25.60;52.50;;;;;;4974871;28;97185;-44
2023/07/15 12:21:34;;;;;;;106.63;56.75;;;25.60;51.90;;;;;;4972955;28;95198;-47
2023/07/15 12:24:00;;;;;;;98.78;56.47;;;25.50;52.40;;;;;;4967949;28;95485;-46
2023/07/15 12:26:25;;;;;;;99.00;56.70;;;25.50;52.30;;;;;;4968632;28;100392;-45